Time;durP1;ratioP1;P1;durP2;ratioP2;P2;SDS_P1;SDS_P2;PMS_P1;PMS_P2;Temp;Humidity;BMP_temperature;BMP_pressure;BME280_temperature;BME280_humidity;BME280_pressure;Samples;Min_cycle;Max_cycle;Signal;HPM_P1;HPM_P2
2022/08/28 00:00:13;;;;;;;5.45;4.38;;;19.40;99.90;;;;;;5099578;28;20078;-34
2022/08/28 00:02:39;;;;;;;5.28;4.40;;;19.30;99.90;;;;;;5100882;28;20146;-36
2022/08/28 00:05:07;;;;;;;8.73;5.13;;;19.40;99.90;;;;;;5101519;28;20048;-33
2022/08/28 00:07:33;;;;;;;5.40;4.75;;;19.30;99.90;;;;;;5095803;28;20128;-34
2022/08/28 00:09:58;;;;;;;6.10;4.80;;;19.20;99.90;;;;;;5095456;28;20028;-37
2022/08/28 00:12:25;;;;;;;6.43;4.63;;;19.30;99.90;;;;;;5092366;28;20027;-31
2022/08/28 00:14:50;;;;;;;5.82;4.63;;;19.30;99.90;;;;;;5104828;28;20210;-33
2022/08/28 00:17:16;;;;;;;5.70;4.78;;;19.40;99.90;;;;;;5102874;28;20024;-35
2022/08/28 00:19:41;;;;;;;5.38;4.63;;;19.30;99.90;;;;;;5101203;28;21225;-35
2022/08/28 00:22:07;;;;;;;6.45;4.40;;;19.40;99.90;;;;;;5096614;28;20027;-33
2022/08/28 00:24:33;;;;;;;6.32;4.45;;;19.30;99.90;;;;;;5101675;28;20043;-34
2022/08/28 00:29:43;;;;;;;5.95;5.05;;;19.30;99.90;;;;;;5086854;28;20043;-32
2022/08/28 00:32:09;;;;;;;6.53;4.88;;;19.20;99.90;;;;;;5081951;28;20413;-34
2022/08/28 00:34:34;;;;;;;6.18;4.28;;;19.00;99.90;;;;;;5084340;28;20029;-33
2022/08/28 00:37:00;;;;;;;5.03;4.35;;;19.00;99.90;;;;;;5086688;28;20059;-34
2022/08/28 00:39:26;;;;;;;5.32;4.40;;;19.10;99.90;;;;;;5081663;28;20021;-34
2022/08/28 00:41:52;;;;;;;6.55;4.45;;;19.10;99.90;;;;;;5080760;28;20061;-34
2022/08/28 00:44:22;;;;;;;6.70;4.28;;;19.20;99.90;;;;;;5087038;28;20106;-34
2022/08/28 00:46:51;;;;;;;6.20;4.63;;;19.20;99.90;;;;;;5082376;28;20103;-34
2022/08/28 00:49:21;;;;;;;6.00;4.43;;;19.20;99.90;;;;;;5086913;28;20027;-32
2022/08/28 00:54:46;;;;;;;6.65;4.60;;;19.20;99.90;;;;;;5082648;28;20081;-34
2022/08/28 00:57:20;;;;;;;6.28;4.35;;;19.30;99.90;;;;;;5085530;28;20028;-34
2022/08/28 00:59:45;;;;;;;6.25;4.75;;;19.30;99.90;;;;;;5084060;28;20494;-36
2022/08/28 01:02:12;;;;;;;7.28;4.82;;;19.30;99.90;;;;;;5082464;28;20127;-40
2022/08/28 01:04:38;;;;;;;7.40;5.43;;;19.40;99.90;;;;;;5081780;28;20457;-41
2022/08/28 01:07:07;;;;;;;11.98;6.90;;;19.40;99.90;;;;;;5082152;28;20032;-40
2022/08/28 01:09:37;;;;;;;8.45;6.25;;;19.20;99.90;;;;;;5085130;28;20028;-39
2022/08/28 01:12:08;;;;;;;10.52;7.53;;;19.20;99.90;;;;;;5076125;28;20029;-40
2022/08/28 01:14:37;;;;;;;9.73;6.03;;;19.10;99.90;;;;;;5084709;28;20073;-38
2022/08/28 01:17:05;;;;;;;9.07;6.78;;;19.10;99.90;;;;;;5081801;28;20031;-41
2022/08/28 01:19:56;;;;;;;9.20;6.53;;;19.10;99.90;;;;;;5085798;28;20379;-40
2022/08/28 01:22:28;;;;;;;8.73;5.93;;;19.20;99.90;;;;;;5079734;28;20062;-41
2022/08/28 01:24:56;;;;;;;9.60;7.28;;;19.20;99.90;;;;;;5083080;28;20025;-41
2022/08/28 01:27:22;;;;;;;9.73;7.07;;;19.30;99.90;;;;;;5080725;28;20121;-41
2022/08/28 01:29:49;;;;;;;10.95;7.82;;;19.20;99.90;;;;;;5086416;28;20119;-40
2022/08/28 01:32:29;;;;;;;12.00;8.80;;;19.20;99.90;;;;;;5077909;28;20040;-40
2022/08/28 01:34:55;;;;;;;11.35;8.35;;;19.20;99.90;;;;;;5081686;28;20051;-40
2022/08/28 01:37:20;;;;;;;13.80;9.35;;;19.20;99.90;;;;;;5082095;28;20133;-41
2022/08/28 01:39:46;;;;;;;14.80;8.57;;;19.20;99.90;;;;;;5083985;28;20024;-37
2022/08/28 01:42:12;;;;;;;12.40;9.00;;;19.20;99.90;;;;;;5084680;28;20016;-40
2022/08/28 01:44:38;;;;;;;14.65;10.00;;;19.30;99.90;;;;;;5083144;28;20016;-41
2022/08/28 01:47:03;;;;;;;12.10;8.77;;;19.30;99.90;;;;;;5076674;28;20484;-40
2022/08/28 01:49:29;;;;;;;10.25;8.32;;;19.20;99.90;;;;;;5083939;28;20043;-38
2022/08/28 01:51:56;;;;;;;12.45;7.80;;;19.20;99.90;;;;;;5080979;28;20024;-40
2022/08/28 01:54:22;;;;;;;13.60;8.30;;;19.20;99.90;;;;;;5085855;28;20028;-37
2022/08/28 01:56:48;;;;;;;12.32;8.50;;;19.20;99.90;;;;;;5076571;28;20068;-40
2022/08/28 01:59:14;;;;;;;12.10;8.80;;;19.10;99.90;;;;;;5086281;28;20453;-41
2022/08/28 02:01:41;;;;;;;12.43;8.80;;;19.00;99.90;;;;;;5077469;28;20044;-39
2022/08/28 02:04:07;;;;;;;17.17;9.63;;;18.90;99.90;;;;;;5083684;28;20264;-40
2022/08/28 02:06:33;;;;;;;12.25;8.68;;;18.80;99.90;;;;;;5080896;28;20309;-40
2022/08/28 02:08:59;;;;;;;11.55;8.57;;;18.80;99.90;;;;;;5083046;28;20292;-39
2022/08/28 02:11:28;;;;;;;11.40;7.78;;;18.90;99.90;;;;;;5080541;28;20484;-37
2022/08/28 02:13:54;;;;;;;12.20;8.48;;;18.90;99.90;;;;;;5084346;28;20028;-41
2022/08/28 02:16:19;;;;;;;13.02;8.23;;;19.00;99.90;;;;;;5063455;28;20566;-39
2022/08/28 02:18:45;;;;;;;12.45;7.68;;;19.00;99.90;;;;;;5082470;28;20024;-36
2022/08/28 02:21:12;;;;;;;13.95;8.02;;;19.00;99.90;;;;;;5079899;28;20048;-39
2022/08/28 02:23:39;;;;;;;13.23;7.97;;;19.10;99.90;;;;;;5084731;28;20479;-40
2022/08/28 02:26:07;;;;;;;12.73;9.48;;;18.90;99.90;;;;;;5079630;28;20053;-37
2022/08/28 02:28:32;;;;;;;11.63;8.20;;;18.70;99.90;;;;;;5084575;28;20070;-41
2022/08/28 02:30:58;;;;;;;11.77;7.30;;;18.70;99.90;;;;;;5081452;28;20452;-39
2022/08/28 02:33:24;;;;;;;12.05;8.27;;;18.80;99.90;;;;;;5077301;28;20039;-39
2022/08/28 02:35:50;;;;;;;12.63;7.43;;;18.80;99.90;;;;;;5083499;28;20370;-38
2022/08/28 02:38:16;;;;;;;12.93;7.53;;;18.80;99.90;;;;;;5083609;28;20032;-38
2022/08/28 02:40:42;;;;;;;10.77;7.47;;;18.90;99.90;;;;;;5079465;28;20099;-38
2022/08/28 02:43:07;;;;;;;11.23;7.85;;;19.00;99.90;;;;;;5081803;28;20420;-41
2022/08/28 02:45:33;;;;;;;12.02;7.55;;;19.00;99.90;;;;;;5084201;28;20059;-38
2022/08/28 02:48:00;;;;;;;10.93;7.88;;;19.00;99.90;;;;;;5082884;28;21483;-38
2022/08/28 02:50:26;;;;;;;11.27;7.78;;;19.00;99.90;;;;;;5081890;28;20020;-39
2022/08/28 02:52:52;;;;;;;10.75;7.30;;;19.10;99.90;;;;;;5081121;28;20032;-41
2022/08/28 02:55:19;;;;;;;10.68;7.07;;;19.10;99.90;;;;;;5079495;28;20020;-41
2022/08/28 02:57:46;;;;;;;11.38;7.60;;;19.00;99.90;;;;;;5081220;28;20060;-40
2022/08/28 03:00:16;;;;;;;9.90;7.63;;;19.10;99.90;;;;;;5081693;28;20103;-39
2022/08/28 03:02:44;;;;;;;8.43;6.57;;;19.10;99.90;;;;;;5077751;28;20178;-37
2022/08/28 03:05:11;;;;;;;12.88;7.80;;;19.10;99.90;;;;;;5082006;28;20063;-40
2022/08/28 03:07:36;;;;;;;10.63;7.40;;;19.20;99.90;;;;;;5081811;28;20036;-39
2022/08/28 03:10:03;;;;;;;9.57;7.03;;;19.20;99.90;;;;;;5083862;28;20035;-38
2022/08/28 03:12:29;;;;;;;11.85;7.85;;;19.20;99.90;;;;;;5083714;28;20039;-39
2022/08/28 03:14:55;;;;;;;11.50;7.40;;;19.20;99.90;;;;;;5083954;28;20024;-39
2022/08/28 03:17:21;;;;;;;10.82;7.47;;;19.20;99.90;;;;;;5079911;28;20024;-40
2022/08/28 03:19:48;;;;;;;9.90;7.03;;;19.30;99.90;;;;;;5081200;28;20089;-40
2022/08/28 03:22:16;;;;;;;10.35;6.93;;;19.20;99.90;;;;;;5080387;28;20492;-39
2022/08/28 03:24:42;;;;;;;13.17;7.60;;;19.20;99.90;;;;;;5081178;28;20076;-41
2022/08/28 03:27:07;;;;;;;11.88;7.90;;;19.20;99.90;;;;;;5084096;28;20676;-40
2022/08/28 03:29:34;;;;;;;12.75;8.52;;;19.10;99.90;;;;;;5079672;28;20220;-41
2022/08/28 03:32:00;;;;;;;12.15;8.90;;;18.90;99.90;;;;;;5080121;28;20040;-39
2022/08/28 03:34:25;;;;;;;11.93;8.75;;;18.80;99.90;;;;;;5081323;28;20336;-41
2022/08/28 03:36:51;;;;;;;12.23;8.60;;;18.70;99.90;;;;;;5083413;28;20028;-41
2022/08/28 03:39:17;;;;;;;13.38;8.45;;;18.60;99.90;;;;;;5062283;28;20035;-40
2022/08/28 03:41:42;;;;;;;12.63;8.45;;;18.60;99.90;;;;;;5077544;28;20237;-41
2022/08/28 03:44:08;;;;;;;12.70;8.77;;;18.60;99.90;;;;;;5083470;28;20032;-40
2022/08/28 03:46:34;;;;;;;15.30;9.20;;;18.60;99.90;;;;;;5079719;28;20036;-38
2022/08/28 03:49:01;;;;;;;13.73;9.50;;;18.50;99.90;;;;;;5077743;28;20035;-40
2022/08/28 03:51:29;;;;;;;15.48;9.32;;;18.60;99.90;;;;;;5080218;28;20032;-34
2022/08/28 03:53:55;;;;;;;;;;;18.50;99.90;;;;;;5063966;28;20568;-39
2022/08/28 03:56:25;;;;;;;13.35;8.27;;;18.60;99.90;;;;;;5079336;28;19911;-40
2022/08/28 03:58:54;;;;;;;13.32;9.77;;;18.60;99.90;;;;;;5080790;28;20028;-40
2022/08/28 04:01:20;;;;;;;12.05;8.50;;;18.50;99.90;;;;;;5083036;28;20602;-38
2022/08/28 04:03:46;;;;;;;13.23;8.52;;;18.50;99.90;;;;;;5079290;28;20539;-38
2022/08/28 04:06:12;;;;;;;13.30;8.73;;;18.50;99.90;;;;;;5084722;28;20428;-41
2022/08/28 04:08:38;;;;;;;14.43;9.55;;;18.50;99.90;;;;;;5083702;28;20028;-40
2022/08/28 04:11:04;;;;;;;15.38;9.25;;;18.50;99.90;;;;;;5084536;28;20484;-38
2022/08/28 04:13:30;;;;;;;14.57;9.60;;;18.40;99.90;;;;;;5081134;28;20279;-40
2022/08/28 04:16:01;;;;;;;14.35;9.18;;;18.30;99.90;;;;;;5083605;28;20032;-41
2022/08/28 04:18:28;;;;;;;15.20;10.15;;;18.30;99.90;;;;;;5064280;28;20468;-38
2022/08/28 04:21:03;;;;;;;15.70;9.85;;;18.30;99.90;;;;;;5083342;28;20036;-39
2022/08/28 04:23:29;;;;;;;15.98;10.02;;;18.30;99.90;;;;;;5084573;28;20423;-40
2022/08/28 04:25:54;;;;;;;16.73;9.95;;;18.20;99.90;;;;;;5087337;28;20038;-38
2022/08/28 04:28:21;;;;;;;15.73;9.75;;;18.10;99.90;;;;;;5087912;28;20047;-40
2022/08/28 04:30:50;;;;;;;18.73;10.85;;;18.10;99.90;;;;;;5082820;28;20033;-40
2022/08/28 04:33:17;;;;;;;16.80;10.50;;;18.10;99.90;;;;;;5082869;28;20027;-40
2022/08/28 04:35:43;;;;;;;17.15;11.02;;;18.00;99.90;;;;;;5086065;28;20111;-37
2022/08/28 04:38:08;;;;;;;17.67;10.55;;;18.00;99.90;;;;;;5082403;28;20103;-39
2022/08/28 04:40:38;;;;;;;18.08;11.20;;;18.00;99.90;;;;;;5084314;28;20085;-40
2022/08/28 04:43:05;;;;;;;19.02;11.55;;;18.00;99.90;;;;;;5086382;28;20347;-39
2022/08/28 04:45:30;;;;;;;18.00;11.18;;;18.00;99.90;;;;;;5083619;28;20035;-38
2022/08/28 04:47:56;;;;;;;20.38;11.93;;;18.00;99.90;;;;;;5083580;28;20496;-40
2022/08/28 04:50:22;;;;;;;16.33;11.05;;;18.00;99.90;;;;;;5081241;28;20542;-40
2022/08/28 04:52:50;;;;;;;19.52;10.77;;;18.00;99.90;;;;;;5083912;28;20119;-38
2022/08/28 04:55:16;;;;;;;18.63;10.90;;;18.00;99.90;;;;;;5078715;28;20033;-39
2022/08/28 04:57:41;;;;;;;20.95;11.52;;;17.90;99.90;;;;;;5079669;28;20035;-39
2022/08/28 05:00:09;;;;;;;19.52;11.40;;;17.90;99.90;;;;;;5084400;28;20085;-39
2022/08/28 05:02:35;;;;;;;22.03;12.47;;;17.90;99.90;;;;;;5083625;28;20037;-40
2022/08/28 05:05:01;;;;;;;19.85;11.45;;;17.90;99.90;;;;;;5080661;28;20657;-40
2022/08/28 05:07:26;;;;;;;18.20;11.23;;;18.00;99.90;;;;;;5081401;28;20523;-38
2022/08/28 05:09:53;;;;;;;23.15;11.75;;;17.90;99.90;;;;;;5082988;28;20091;-38
2022/08/28 05:12:19;;;;;;;20.00;12.40;;;18.00;99.90;;;;;;5080589;28;20078;-40
2022/08/28 05:14:44;;;;;;;19.73;11.60;;;18.00;99.90;;;;;;5084933;28;20032;-40
2022/08/28 05:17:13;;;;;;;22.83;13.25;;;18.00;99.90;;;;;;5076853;28;20098;-38
2022/08/28 05:19:39;;;;;;;20.55;12.60;;;18.00;99.90;;;;;;5079818;28;20158;-38
2022/08/28 05:22:05;;;;;;;22.05;12.60;;;18.00;99.90;;;;;;5083489;28;20027;-40
2022/08/28 05:24:31;;;;;;;19.67;12.18;;;18.00;99.90;;;;;;5068029;28;20021;-40
2022/08/28 05:26:57;;;;;;;20.58;12.43;;;18.00;99.90;;;;;;5083062;28;20028;-40
2022/08/28 05:29:23;;;;;;;18.88;12.27;;;18.00;99.90;;;;;;5083945;28;20602;-40
2022/08/28 05:31:49;;;;;;;23.25;13.10;;;18.00;99.90;;;;;;5082429;28;20040;-39
2022/08/28 05:34:15;;;;;;;26.23;13.75;;;18.00;99.90;;;;;;5084531;28;20107;-40
2022/08/28 05:36:41;;;;;;;21.73;13.57;;;18.00;99.90;;;;;;5080954;28;20039;-40
2022/08/28 05:39:09;;;;;;;22.10;13.40;;;18.00;99.90;;;;;;5079358;28;20028;-38
2022/08/28 05:41:37;;;;;;;19.80;12.07;;;18.00;99.90;;;;;;5079154;28;20036;-36
2022/08/28 05:44:06;;;;;;;24.15;13.52;;;18.00;99.90;;;;;;5082991;28;20147;-39
2022/08/28 05:46:34;;;;;;;24.42;13.82;;;18.00;99.90;;;;;;5084540;28;20028;-40
2022/08/28 05:49:00;;;;;;;22.98;13.40;;;18.00;99.90;;;;;;5082859;28;20336;-38
2022/08/28 05:51:27;;;;;;;22.00;12.25;;;18.00;99.90;;;;;;5081504;28;20449;-40
2022/08/28 05:53:53;;;;;;;25.33;13.20;;;18.00;99.90;;;;;;5083923;28;20165;-40
2022/08/28 05:56:22;;;;;;;24.42;13.77;;;18.00;99.90;;;;;;5083915;28;20038;-40
2022/08/28 05:58:48;;;;;;;20.60;12.90;;;18.10;99.90;;;;;;5083281;28;20024;-39
2022/08/28 06:01:19;;;;;;;20.17;13.10;;;18.00;99.90;;;;;;5083846;28;20397;-35
2022/08/28 06:03:53;;;;;;;21.08;13.65;;;18.00;99.90;;;;;;5080216;28;20020;-40
2022/08/28 06:06:20;;;;;;;22.45;12.98;;;18.10;99.90;;;;;;5079692;28;20028;-38
2022/08/28 06:08:46;;;;;;;23.83;13.95;;;18.10;99.90;;;;;;5085518;28;20028;-38
2022/08/28 06:11:12;;;;;;;23.05;13.77;;;18.10;99.90;;;;;;5083548;28;20024;-39
2022/08/28 06:13:37;;;;;;;20.73;12.95;;;18.10;99.90;;;;;;5078964;28;20039;-39
2022/08/28 06:16:04;;;;;;;20.60;13.15;;;18.10;99.90;;;;;;5078597;28;20444;-41
2022/08/28 06:18:30;;;;;;;24.92;13.20;;;18.10;99.90;;;;;;5083231;28;20520;-36
2022/08/28 06:21:01;;;;;;;23.50;13.40;;;18.10;99.90;;;;;;5077053;28;20447;-40
2022/08/28 06:23:27;;;;;;;22.00;12.85;;;18.20;99.90;;;;;;5080798;28;20491;-40
2022/08/28 06:25:52;;;;;;;22.17;12.98;;;18.10;99.90;;;;;;5081335;28;20044;-40
2022/08/28 06:28:22;;;;;;;23.02;13.05;;;18.10;99.90;;;;;;5085557;28;20028;-40
2022/08/28 06:30:49;;;;;;;23.00;12.70;;;18.20;99.90;;;;;;5080535;28;20101;-38
2022/08/28 06:33:16;;;;;;;21.13;12.70;;;18.10;99.90;;;;;;5079792;28;20963;-39
2022/08/28 06:35:45;;;;;;;23.52;12.85;;;18.20;99.90;;;;;;5082164;28;20480;-37
2022/08/28 06:38:11;;;;;;;23.65;12.45;;;18.20;99.90;;;;;;5081454;28;20075;-39
2022/08/28 06:40:48;;;;;;;22.50;13.02;;;18.20;99.90;;;;;;5083039;28;20463;-40
2022/08/28 06:43:15;;;;;;;20.52;12.23;;;18.20;99.90;;;;;;5079067;28;20031;-39
2022/08/28 06:45:43;;;;;;;22.10;12.55;;;18.20;99.90;;;;;;5080661;28;20026;-39
2022/08/28 06:48:11;;;;;;;18.25;12.45;;;18.20;99.90;;;;;;5077351;28;20024;-37
2022/08/28 06:50:41;;;;;;;21.27;13.00;;;18.20;99.90;;;;;;5079822;28;20047;-40
2022/08/28 06:53:08;;;;;;;21.33;13.13;;;18.20;99.90;;;;;;5078514;28;20040;-37
2022/08/28 06:55:34;;;;;;;19.70;12.27;;;18.20;99.90;;;;;;5079725;28;20792;-40
2022/08/28 06:57:59;;;;;;;20.58;12.10;;;18.20;99.90;;;;;;5078537;28;20110;-38
2022/08/28 07:00:25;;;;;;;19.98;13.38;;;18.20;99.90;;;;;;5083792;28;20107;-38
2022/08/28 07:02:51;;;;;;;21.48;13.52;;;18.30;99.90;;;;;;5082034;28;20383;-39
2022/08/28 07:05:16;;;;;;;22.77;12.10;;;18.30;99.90;;;;;;5083008;28;20581;-38
2022/08/28 07:07:42;;;;;;;20.40;12.88;;;18.30;99.90;;;;;;5078394;28;20020;-40
2022/08/28 07:10:08;;;;;;;23.00;13.35;;;18.40;99.90;;;;;;5083002;28;20123;-40
2022/08/28 07:12:33;;;;;;;21.77;13.38;;;18.40;99.90;;;;;;5081190;28;20020;-39
2022/08/28 07:14:59;;;;;;;24.42;13.27;;;18.30;99.90;;;;;;5084972;28;20583;-39
2022/08/28 07:17:25;;;;;;;21.88;13.30;;;18.30;99.90;;;;;;5080706;28;20028;-39
2022/08/28 07:19:50;;;;;;;23.73;12.48;;;18.30;99.90;;;;;;5082598;28;20044;-39
2022/08/28 07:22:16;;;;;;;18.90;12.50;;;18.20;99.90;;;;;;5081351;28;20028;-39
2022/08/28 07:24:41;;;;;;;21.35;12.60;;;18.30;99.90;;;;;;5083741;28;20024;-39
2022/08/28 07:27:07;;;;;;;22.00;12.10;;;18.20;99.90;;;;;;5079938;28;20021;-35
2022/08/28 07:29:34;;;;;;;19.15;11.50;;;18.20;99.90;;;;;;5083730;28;20028;-36
2022/08/28 07:31:59;;;;;;;20.40;11.65;;;18.10;99.90;;;;;;5078404;28;20048;-39
2022/08/28 07:34:25;;;;;;;17.88;11.10;;;18.10;99.90;;;;;;5080829;28;20031;-40
2022/08/28 07:36:51;;;;;;;20.17;11.85;;;18.00;99.90;;;;;;5084248;28;20036;-37
2022/08/28 07:39:17;;;;;;;20.33;12.73;;;18.00;99.90;;;;;;5084689;28;20032;-37
2022/08/28 07:41:43;;;;;;;20.75;12.82;;;18.00;99.90;;;;;;5087403;28;20028;-40
2022/08/28 07:46:57;;;;;;;21.27;12.95;;;18.00;99.90;;;;;;5081305;28;20081;-40
2022/08/28 07:49:24;;;;;;;21.50;12.98;;;18.10;99.90;;;;;;5082091;28;20518;-40
2022/08/28 07:51:50;;;;;;;21.67;13.45;;;18.00;99.90;;;;;;5083020;28;20146;-40
2022/08/28 07:54:16;;;;;;;19.90;12.93;;;18.00;99.90;;;;;;5086803;28;20074;-36
2022/08/28 07:56:42;;;;;;;23.50;12.65;;;18.00;99.90;;;;;;5083400;28;20027;-40
2022/08/28 07:59:10;;;;;;;21.25;12.40;;;18.00;99.90;;;;;;5087640;28;20061;-38
2022/08/28 08:01:41;;;;;;;21.63;12.93;;;18.10;99.90;;;;;;5082431;28;20099;-38
2022/08/28 08:04:08;;;;;;;22.77;12.15;;;18.10;99.90;;;;;;5088007;28;20043;-40
2022/08/28 08:06:36;;;;;;;22.70;12.57;;;18.10;99.90;;;;;;5083923;28;20373;-38
2022/08/28 08:09:04;;;;;;;20.55;12.18;;;18.10;99.90;;;;;;5083028;28;20028;-40
2022/08/28 08:11:30;;;;;;;21.48;12.32;;;18.20;99.90;;;;;;5085822;28;20484;-38
2022/08/28 08:13:56;;;;;;;19.92;12.30;;;18.20;99.90;;;;;;5084267;28;20024;-38
2022/08/28 08:16:24;;;;;;;20.42;12.98;;;18.30;99.90;;;;;;5087816;28;20032;-39
2022/08/28 08:18:50;;;;;;;22.33;13.23;;;18.30;99.90;;;;;;5079684;28;20479;-37
2022/08/28 08:21:18;;;;;;;21.60;13.65;;;18.40;99.90;;;;;;5083509;28;20085;-38
2022/08/28 08:23:45;;;;;;;24.92;13.77;;;18.40;99.90;;;;;;5081485;28;20043;-39
2022/08/28 08:26:15;;;;;;;21.77;13.20;;;18.40;99.90;;;;;;5084029;28;20032;-38
2022/08/28 08:28:41;;;;;;;22.50;12.88;;;18.40;99.90;;;;;;5086192;28;20077;-37
2022/08/28 08:31:11;;;;;;;18.65;12.07;;;18.50;99.90;;;;;;5081969;28;20039;-38
2022/08/28 08:33:39;;;;;;;20.10;12.05;;;18.50;99.90;;;;;;5080034;28;20032;-40
2022/08/28 08:36:06;;;;;;;21.00;12.95;;;18.50;99.90;;;;;;5083605;28;20040;-39
2022/08/28 08:38:32;;;;;;;20.30;11.75;;;18.50;99.90;;;;;;5080210;28;20024;-39
2022/08/28 08:41:00;;;;;;;18.83;12.88;;;18.60;99.90;;;;;;5084268;28;20535;-37
2022/08/28 08:43:30;;;;;;;20.65;12.55;;;18.70;99.90;;;;;;5084278;28;20020;-40
2022/08/28 08:45:55;;;;;;;19.08;11.73;;;18.70;99.90;;;;;;5084831;28;20040;-40
2022/08/28 08:48:28;;;;;;;18.50;12.43;;;18.70;99.90;;;;;;5084198;28;20032;-38
2022/08/28 08:51:02;;;;;;;19.98;12.35;;;18.70;99.90;;;;;;5085472;28;20496;-40
2022/08/28 08:53:45;;;;;;;19.00;10.93;;;18.70;99.90;;;;;;5080763;28;20024;-40
2022/08/28 08:56:15;;;;;;;18.90;11.93;;;18.80;99.90;;;;;;5083897;28;20488;-38
2022/08/28 08:58:48;;;;;;;18.13;11.93;;;18.90;99.90;;;;;;5082812;28;20464;-35
2022/08/28 09:01:30;;;;;;;18.70;12.55;;;18.90;99.90;;;;;;5082220;28;20085;-40
2022/08/28 09:04:10;;;;;;;19.15;12.93;;;19.00;99.90;;;;;;5086304;28;20030;-40
2022/08/28 09:06:58;;;;;;;18.65;10.93;;;18.90;99.90;;;;;;5082926;28;20059;-40
2022/08/28 09:09:33;;;;;;;19.23;12.15;;;18.90;99.90;;;;;;5081933;28;20035;-40
2022/08/28 09:12:10;;;;;;;19.60;11.18;;;19.00;99.90;;;;;;5081954;28;20038;-40
2022/08/28 09:15:03;;;;;;;19.23;11.52;;;18.90;99.90;;;;;;5080759;28;20114;-39
2022/08/28 09:17:36;;;;;;;17.73;10.88;;;18.90;99.90;;;;;;5083248;28;20032;-40
2022/08/28 09:20:05;;;;;;;17.67;10.57;;;18.80;99.90;;;;;;5082156;28;20473;-40
2022/08/28 09:22:30;;;;;;;17.23;10.73;;;18.80;99.90;;;;;;5083991;28;20051;-40
2022/08/28 09:24:56;;;;;;;18.25;11.00;;;19.00;99.90;;;;;;5082251;28;20661;-39
2022/08/28 09:27:30;;;;;;;18.98;11.15;;;19.10;99.90;;;;;;5086496;28;20028;-40
2022/08/28 09:30:07;;;;;;;17.40;10.48;;;19.10;99.90;;;;;;5083762;28;20027;-40
2022/08/28 09:32:43;;;;;;;16.65;9.63;;;19.20;99.90;;;;;;5084876;28;20039;-40
2022/08/28 09:35:17;;;;;;;16.70;10.93;;;19.30;99.90;;;;;;5085457;28;20081;-39
2022/08/28 09:37:43;;;;;;;18.20;11.13;;;19.30;99.90;;;;;;5082069;28;20035;-40
2022/08/28 09:43:27;;;;;;;15.13;9.35;;;19.40;99.90;;;;;;5082955;28;20593;-36
2022/08/28 09:46:04;;;;;;;16.35;10.23;;;19.50;99.90;;;;;;5088511;28;20546;-40
2022/08/28 09:48:31;;;;;;;17.58;10.50;;;19.60;99.90;;;;;;5084166;28;20073;-40
2022/08/28 09:50:57;;;;;;;17.08;10.40;;;19.60;99.90;;;;;;5085870;28;20016;-40
2022/08/28 09:53:24;;;;;;;16.52;10.13;;;19.60;99.90;;;;;;5085355;28;20077;-41
2022/08/28 09:56:04;;;;;;;16.20;10.35;;;19.70;99.90;;;;;;5083201;28;20063;-38
2022/08/28 09:58:53;;;;;;;16.67;9.65;;;19.90;99.90;;;;;;5085919;28;20176;-38
2022/08/28 10:01:40;;;;;;;13.65;9.32;;;19.90;99.90;;;;;;5064744;28;20032;-39
2022/08/28 10:04:18;;;;;;;13.13;8.93;;;20.00;99.90;;;;;;5075568;28;20028;-39
2022/08/28 10:06:48;;;;;;;15.63;9.57;;;20.10;99.90;;;;;;5084347;28;20051;-39
2022/08/28 10:09:16;;;;;;;13.60;9.23;;;20.20;99.90;;;;;;5084556;28;20409;-39
2022/08/28 10:12:13;;;;;;;13.23;9.40;;;20.30;99.90;;;;;;5083613;28;20115;-40
2022/08/28 10:15:03;;;;;;;15.23;9.90;;;20.30;99.90;;;;;;5074215;28;20107;-39
2022/08/28 10:17:50;;;;;;;16.38;9.95;;;20.10;99.90;;;;;;5081438;28;20440;-35
2022/08/28 10:20:53;;;;;;;14.93;9.55;;;20.10;99.90;;;;;;5079975;28;20435;-39
2022/08/28 10:23:27;;;;;;;16.52;9.57;;;20.00;99.90;;;;;;5075963;28;20684;-36
2022/08/28 10:26:11;;;;;;;15.63;9.93;;;20.10;99.90;;;;;;5081848;28;20484;-38
2022/08/28 10:29:04;;;;;;;12.60;8.55;;;20.20;99.90;;;;;;5084521;28;20031;-39
2022/08/28 10:31:58;;;;;;;16.42;10.15;;;20.20;99.90;;;;;;5076919;28;20040;-38
2022/08/28 10:34:56;;;;;;;14.85;9.07;;;20.20;99.90;;;;;;5082638;28;20024;-40
2022/08/28 10:37:33;;;;;;;14.82;9.05;;;20.20;99.90;;;;;;5080120;28;20045;-40
2022/08/28 10:40:04;;;;;;;15.07;8.82;;;20.20;99.90;;;;;;5081533;28;20043;-38
2022/08/28 10:42:51;;;;;;;12.55;8.45;;;20.30;99.90;;;;;;5054156;28;20039;-40
2022/08/28 10:45:24;;;;;;;;;;;20.40;99.90;;;;;;5079207;28;20081;-37
2022/08/28 10:48:06;;;;;;;13.45;8.65;;;20.30;99.90;;;;;;5082936;28;20601;-38
2022/08/28 10:50:37;;;;;;;13.07;8.07;;;20.30;99.90;;;;;;5059991;28;20046;-40
2022/08/28 10:53:08;;;;;;;11.68;8.20;;;20.30;99.90;;;;;;5083147;28;20255;-36
2022/08/28 10:55:42;;;;;;;13.15;8.68;;;20.40;99.90;;;;;;5079336;28;20032;-39
2022/08/28 10:58:10;;;;;;;16.33;9.20;;;20.30;99.90;;;;;;5067862;28;20036;-40
2022/08/28 11:00:38;;;;;;;13.70;9.25;;;20.40;99.90;;;;;;5080156;28;20032;-39
2022/08/28 11:03:10;;;;;;;11.35;8.20;;;20.40;99.90;;;;;;5080830;28;20027;-40
2022/08/28 11:05:42;;;;;;;14.23;9.45;;;20.30;99.90;;;;;;5083531;28;20158;-38
2022/08/28 11:08:18;;;;;;;13.10;8.45;;;20.40;99.90;;;;;;5053821;28;20481;-41
2022/08/28 11:10:48;;;;;;;14.95;8.98;;;20.30;99.90;;;;;;5067058;28;20118;-39
2022/08/28 11:13:39;;;;;;;14.52;9.00;;;20.40;99.90;;;;;;5069446;28;20016;-41
2022/08/28 11:16:28;;;;;;;15.00;8.27;;;20.30;99.90;;;;;;5088546;28;20028;-40
2022/08/28 11:19:06;;;;;;;11.65;8.48;;;20.30;99.90;;;;;;5086655;28;20430;-40
2022/08/28 11:21:41;;;;;;;12.18;7.80;;;20.40;99.90;;;;;;5085275;28;20449;-38
2022/08/28 11:24:21;;;;;;;15.45;8.35;;;20.50;99.90;;;;;;5085217;28;20447;-40
2022/08/28 11:27:15;;;;;;;10.93;7.50;;;20.60;99.90;;;;;;5084603;28;20024;-41
2022/08/28 11:29:56;;;;;;;15.57;8.73;;;20.60;99.90;;;;;;5087792;28;20035;-40
2022/08/28 11:32:30;;;;;;;11.45;7.28;;;20.50;99.90;;;;;;5085922;28;20043;-40
2022/08/28 11:35:05;;;;;;;10.95;6.93;;;20.30;99.90;;;;;;5088550;28;20075;-41
2022/08/28 11:37:39;;;;;;;13.73;7.80;;;20.00;99.90;;;;;;5085830;28;20106;-41
2022/08/28 11:40:19;;;;;;;11.88;7.20;;;19.60;99.90;;;;;;5068181;28;20035;-39
2022/08/28 11:42:47;;;;;;;13.85;7.65;;;19.10;99.90;;;;;;5081197;28;20035;-38
2022/08/28 11:45:42;;;;;;;12.40;8.30;;;19.20;99.90;;;;;;5085175;28;20016;-36
2022/08/28 11:48:28;;;;;;;11.80;7.78;;;18.90;99.90;;;;;;5056937;28;20024;-41
2022/08/28 11:51:02;;;;;;;11.45;7.95;;;18.80;99.90;;;;;;5082737;28;20028;-39
2022/08/28 11:53:36;;;;;;;11.63;8.15;;;18.70;99.90;;;;;;5083668;28;20463;-38
2022/08/28 11:56:12;;;;;;;14.20;8.05;;;18.80;99.90;;;;;;5086946;28;20481;-38
2022/08/28 11:59:05;;;;;;;13.98;8.93;;;19.00;99.90;;;;;;5085091;28;20031;-40
2022/08/28 12:01:36;;;;;;;15.13;9.35;;;19.20;99.90;;;;;;5080242;28;20035;-38
2022/08/28 12:04:11;;;;;;;15.75;9.75;;;19.20;99.90;;;;;;5082998;28;20028;-40
2022/08/28 12:07:12;;;;;;;12.13;9.15;;;19.30;99.90;;;;;;5085283;28;20064;-38
2022/08/28 12:09:41;;;;;;;13.50;8.95;;;19.40;99.90;;;;;;5080110;28;20044;-37
2022/08/28 12:12:21;;;;;;;16.25;9.88;;;19.60;99.90;;;;;;5081218;28;20031;-39
2022/08/28 12:14:47;;;;;;;16.60;9.77;;;19.60;99.90;;;;;;5082234;28;20077;-36
2022/08/28 12:17:15;;;;;;;15.05;9.93;;;19.60;99.90;;;;;;5082244;28;20024;-38
2022/08/28 12:19:48;;;;;;;14.48;9.55;;;19.60;99.90;;;;;;5085382;28;20097;-38
2022/08/28 12:22:21;;;;;;;14.65;9.38;;;19.60;99.90;;;;;;5080980;28;20401;-40
2022/08/28 12:24:58;;;;;;;14.75;9.07;;;19.60;99.90;;;;;;5085256;28;20055;-40
2022/08/28 12:27:24;;;;;;;13.48;8.95;;;19.60;99.90;;;;;;5087342;28;20352;-41
2022/08/28 12:29:58;;;;;;;14.38;9.38;;;19.70;99.90;;;;;;5082501;28;20536;-41
2022/08/28 12:32:35;;;;;;;11.35;7.80;;;19.80;99.90;;;;;;5083236;28;20569;-38
2022/08/28 12:35:01;;;;;;;16.55;9.90;;;19.80;99.90;;;;;;5083845;28;20298;-40
2022/08/28 12:37:44;;;;;;;13.10;8.85;;;20.00;99.90;;;;;;5084668;28;20503;-39
2022/08/28 12:40:18;;;;;;;13.23;9.07;;;20.00;99.90;;;;;;5083665;28;20036;-38
2022/08/28 12:42:55;;;;;;;11.73;7.82;;;20.00;99.90;;;;;;5082236;28;20028;-37
2022/08/28 12:45:48;;;;;;;13.70;8.73;;;20.00;99.90;;;;;;5083999;28;20076;-38
2022/08/28 12:48:28;;;;;;;11.77;8.13;;;20.10;99.90;;;;;;5068347;28;20447;-38
2022/08/28 12:51:01;;;;;;;13.82;9.35;;;20.20;99.90;;;;;;5064129;28;20101;-39
2022/08/28 12:53:42;;;;;;;14.65;8.70;;;20.30;99.90;;;;;;5084146;28;20043;-38
2022/08/28 12:56:10;;;;;;;14.02;8.65;;;20.40;99.90;;;;;;5085120;28;20590;-40
2022/08/28 12:58:38;;;;;;;13.35;8.60;;;20.40;99.90;;;;;;5086334;28;20043;-40